KPPA

Perry Lefors Field Airport

Pampa, Texas, USA
METAR KPPA 182035Z AUTO 30016G22KT 10SM CLR 19/00 A2957 RMK AO2 T01911002
Observed Flight Rules
Jan-18 @ 20:35 UTC (21 minutes ago) Visual Flight Rules
Wind Visibility Clouds
300° at 16 knots
 Gusting to 22 knots
10 miles
  • Clear skies
Temperatures Readings
Current 19°C / 66°F
Dewpoint -0°C / 32°F
Humidity 28%
Altimeter 29.57" Hg
Pressure 1001.32 hPa
Elevation 989
METAR KPPA 182035Z AUTO 30016G22KT 10SM CLR 19/00 A2957 RMK AO2 T01911002
Observed Flight Rules
Jan-18 @ 20:35 UTC
(21 minutes ago)
VFR
Wind Visibility
300° at 16 knots
 Gusting to 22 knots
10 miles
Clouds
  • Clear skies
Temperature Dewpoint
19°C / 66°F -0°C / 32°F
Humidity Altimeter Pressure
28% 29.57" Hg 1001.32 hPa